createdAt,value
2019-02-05T00:02:12.939Z,10.10
2019-02-05T00:04:42.631Z,7.47
2019-02-05T00:07:10.048Z,9.20
2019-02-05T00:09:39.734Z,9.93
2019-02-05T00:12:07.323Z,8.15
2019-02-05T00:14:35.868Z,8.90
2019-02-05T00:17:03.345Z,8.55
2019-02-05T00:19:30.758Z,8.58
2019-02-05T00:21:57.811Z,9.25
2019-02-05T00:24:25.782Z,7.97
2019-02-05T00:26:53.717Z,9.53
2019-02-05T00:29:20.952Z,9.28
2019-02-05T00:31:48.629Z,9.63
2019-02-05T00:34:16.058Z,9.98
2019-02-05T00:36:43.081Z,8.28
2019-02-05T00:39:10.271Z,9.65
2019-02-05T00:41:37.355Z,9.60
2019-02-05T00:44:04.973Z,9.13
2019-02-05T00:46:32.401Z,9.83
2019-02-05T00:48:59.658Z,8.15
2019-02-05T00:51:26.915Z,8.73
2019-02-05T00:53:54.156Z,8.73
2019-02-05T00:56:21.716Z,9.13
2019-02-05T00:58:48.829Z,9.40
2019-02-05T01:01:16.657Z,8.98
2019-02-05T01:03:44.396Z,10.45
2019-02-05T01:06:11.602Z,6.83
2019-02-05T01:08:38.853Z,9.75
2019-02-05T01:11:06.055Z,9.48
2019-02-05T01:13:33.503Z,9.73
2019-02-05T01:16:01.142Z,9.18
2019-02-05T01:18:28.566Z,10.20
2019-02-05T01:20:56.088Z,9.73
2019-02-05T01:23:24.463Z,10.00
2019-02-05T01:25:51.794Z,9.78
2019-02-05T01:28:19.045Z,9.68
2019-02-05T01:30:46.401Z,11.40
2019-02-05T01:33:13.930Z,9.90
2019-02-05T01:35:41.700Z,10.20
2019-02-05T01:38:09.134Z,10.98
2019-02-05T01:40:36.597Z,9.05
2019-02-05T01:43:03.814Z,9.65
2019-02-05T01:45:31.035Z,10.95
2019-02-05T01:47:58.337Z,10.38
2019-02-05T01:50:26.727Z,10.68
2019-02-05T01:52:54.157Z,10.53
2019-02-05T01:55:21.715Z,10.75
2019-02-05T01:57:49.176Z,11.03
2019-02-05T02:00:30.625Z,9.63
2019-02-05T02:02:57.710Z,10.83
2019-02-05T02:05:25.175Z,11.22
2019-02-05T02:07:52.535Z,10.88
2019-02-05T02:10:22.313Z,12.20
2019-02-05T02:12:49.638Z,11.48
2019-02-05T02:15:16.945Z,11.70
2019-02-05T02:17:44.352Z,10.88
2019-02-05T02:20:13.397Z,9.90
2019-02-05T02:22:41.014Z,11.03
2019-02-05T02:25:08.776Z,11.08
2019-02-05T02:27:36.107Z,11.35
2019-02-05T02:30:06.260Z,10.90
2019-02-05T02:32:33.343Z,11.08
2019-02-05T02:35:00.941Z,11.53
2019-02-05T02:37:28.671Z,10.88
2019-02-05T02:39:55.773Z,12.27
2019-02-05T02:42:22.951Z,11.75
2019-02-05T02:44:50.425Z,11.40
2019-02-05T02:47:17.582Z,11.80
2019-02-05T02:49:44.629Z,11.63
2019-02-05T02:52:11.994Z,12.25
2019-02-05T02:54:39.470Z,11.40
2019-02-05T02:57:06.860Z,13.00
2019-02-05T02:59:34.073Z,11.97
2019-02-05T03:02:01.260Z,12.07
2019-02-05T03:04:29.061Z,12.23
2019-02-05T03:06:56.441Z,12.30
2019-02-05T03:09:23.990Z,12.00
2019-02-05T03:11:51.518Z,13.13
2019-02-05T03:14:18.688Z,12.67
2019-02-05T03:16:45.818Z,12.33
2019-02-05T03:19:12.894Z,10.88
2019-02-05T03:21:40.416Z,13.25
2019-02-05T03:24:07.626Z,12.28
2019-02-05T03:26:35.285Z,12.88
2019-02-05T03:29:02.616Z,13.95
2019-02-05T03:31:29.834Z,12.68
2019-02-05T03:33:56.958Z,12.80
2019-02-05T03:36:24.062Z,13.72
2019-02-05T03:38:51.357Z,12.87
2019-02-05T03:41:18.672Z,12.80
2019-02-05T03:43:46.065Z,12.73
2019-02-05T03:46:15.711Z,13.17
2019-02-05T03:48:44.648Z,12.82
2019-02-05T03:51:29.702Z,13.58
2019-02-05T03:54:14.305Z,13.72
2019-02-05T03:57:30.725Z,13.83
2019-02-05T04:00:37.288Z,14.50
2019-02-05T04:03:49.654Z,13.47
2019-02-05T04:06:44.229Z,13.05
2019-02-05T04:09:44.879Z,14.07
2019-02-05T04:12:36.792Z,14.25
2019-02-05T04:15:32.260Z,14.95
2019-02-05T04:18:57.034Z,14.20
2019-02-05T04:21:51.591Z,13.95
2019-02-05T04:24:51.864Z,14.03
2019-02-05T04:27:47.741Z,15.38
2019-02-05T04:30:22.430Z,14.10
2019-02-05T04:33:11.114Z,11.87
2019-02-05T04:36:14.680Z,13.80
2019-02-05T04:39:24.219Z,14.23
2019-02-05T04:42:57.805Z,14.05
2019-02-05T04:45:58.896Z,14.13
2019-02-05T04:49:02.110Z,14.65
2019-02-05T04:52:35.580Z,13.45
2019-02-05T04:55:30.885Z,13.20
2019-02-05T04:58:33.019Z,14.03
2019-02-05T05:01:35.718Z,9.45
2019-02-05T05:04:15.485Z,14.75
2019-02-05T05:07:20.962Z,14.95
2019-02-05T05:09:55.650Z,14.90
2019-02-05T05:12:24.170Z,13.53
2019-02-05T05:14:51.835Z,14.75
2019-02-05T05:17:19.049Z,14.18
2019-02-05T05:19:46.525Z,15.33
2019-02-05T05:22:14.438Z,15.43
2019-02-05T05:24:42.507Z,15.32
2019-02-05T05:27:11.568Z,13.05
2019-02-05T05:29:38.885Z,15.25
2019-02-05T05:32:06.196Z,15.20
2019-02-05T05:34:33.856Z,14.87
2019-02-05T05:37:00.283Z,15.32
2019-02-05T05:39:27.424Z,13.65
2019-02-05T05:41:54.650Z,15.87
2019-02-05T05:44:22.200Z,14.18
2019-02-05T05:46:49.291Z,14.13
2019-02-05T05:49:16.434Z,14.70
2019-02-05T05:51:43.766Z,14.05
2019-02-05T05:54:10.876Z,10.43
2019-02-05T05:56:38.192Z,13.75
2019-02-05T05:59:05.548Z,13.73
2019-02-05T06:01:32.762Z,14.15
2019-02-05T06:03:59.847Z,12.53
2019-02-05T06:06:26.968Z,14.13
2019-02-05T06:08:54.191Z,13.88
2019-02-05T06:11:21.797Z,13.60
2019-02-05T06:13:48.841Z,13.80
2019-02-05T06:16:16.031Z,13.20
2019-02-05T06:18:43.250Z,15.23
2019-02-05T06:21:13.466Z,13.62
2019-02-05T06:23:39.430Z,14.07
2019-02-05T06:26:06.863Z,15.25
2019-02-05T06:28:35.002Z,13.03
2019-02-05T06:31:02.673Z,13.58
2019-02-05T06:33:30.225Z,14.13
2019-02-05T06:35:57.648Z,14.95
2019-02-05T06:38:24.947Z,14.05
2019-02-05T06:40:52.648Z,12.93
2019-02-05T06:43:19.755Z,14.20
2019-02-05T06:45:47.222Z,12.82
2019-02-05T06:48:14.930Z,11.85
2019-02-05T06:50:42.146Z,13.75
2019-02-05T06:53:09.272Z,14.65
2019-02-05T06:55:36.567Z,14.35
2019-02-05T06:58:04.114Z,14.90
2019-02-05T07:00:31.475Z,14.67
2019-02-05T07:02:58.685Z,14.70
2019-02-05T07:05:26.221Z,11.97
2019-02-05T07:07:54.014Z,13.32
2019-02-05T07:10:21.377Z,13.98
2019-02-05T07:12:48.927Z,13.60
2019-02-05T07:15:16.279Z,13.68
2019-02-05T07:17:49.906Z,13.88
2019-02-05T07:20:15.142Z,11.60
2019-02-05T07:22:43.006Z,12.78
2019-02-05T07:25:12.143Z,13.93
2019-02-05T07:27:39.453Z,12.68
2019-02-05T07:30:10.995Z,11.88
2019-02-05T07:32:38.133Z,13.03
2019-02-05T07:35:05.802Z,11.93
2019-02-05T07:37:32.987Z,12.82
2019-02-05T07:40:00.767Z,14.07
2019-02-05T07:42:28.103Z,13.18
2019-02-05T07:44:55.475Z,13.20
2019-02-05T07:47:23.476Z,13.90
2019-02-05T07:49:50.758Z,13.20
2019-02-05T07:52:18.052Z,12.90
2019-02-05T07:54:45.254Z,12.33
2019-02-05T07:57:12.371Z,10.90
2019-02-05T07:59:39.591Z,12.50
2019-02-05T08:02:06.799Z,13.13
2019-02-05T08:04:33.944Z,13.20
2019-02-05T08:07:01.542Z,12.63
2019-02-05T08:09:28.888Z,13.22
2019-02-05T08:11:56.331Z,13.72
2019-02-05T08:14:23.561Z,13.88
2019-02-05T08:16:50.659Z,13.70
2019-02-05T08:19:17.892Z,11.05
2019-02-05T08:21:45.159Z,11.93
2019-02-05T08:24:12.652Z,12.53
2019-02-05T08:26:39.947Z,11.55
2019-02-05T08:29:07.622Z,13.18
2019-02-05T08:31:34.826Z,13.50
2019-02-05T08:34:03.343Z,14.58
2019-02-05T08:36:30.886Z,12.75
2019-02-05T08:38:58.052Z,13.35
2019-02-05T08:41:25.236Z,12.58
2019-02-05T08:43:52.639Z,10.15
2019-02-05T08:46:19.810Z,14.10
2019-02-05T08:48:47.195Z,13.03
2019-02-05T08:51:14.648Z,14.35
2019-02-05T08:53:41.870Z,12.60
2019-02-05T08:56:09.076Z,13.93
2019-02-05T08:58:36.455Z,12.80
2019-02-05T09:01:04.677Z,14.07
2019-02-05T09:03:31.780Z,11.85
2019-02-05T09:05:59.014Z,13.15
2019-02-05T09:08:26.212Z,16.87
2019-02-05T09:10:53.735Z,14.58
2019-02-05T09:13:20.903Z,15.78
2019-02-05T09:15:48.263Z,14.07
2019-02-05T09:18:15.524Z,13.93
2019-02-05T09:20:42.656Z,14.10
2019-02-05T09:23:10.108Z,16.93
2019-02-05T09:25:37.470Z,13.75
2019-02-05T09:28:04.786Z,14.28
2019-02-05T09:30:33.027Z,13.43
2019-02-05T09:33:02.108Z,13.20
2019-02-05T09:35:29.755Z,15.95
2019-02-05T09:37:57.810Z,14.00
2019-02-05T09:40:27.740Z,18.87
2019-02-05T09:42:56.694Z,13.60
2019-02-05T09:45:25.478Z,12.80
2019-02-05T09:47:53.439Z,15.03
2019-02-05T09:50:20.765Z,13.72
2019-02-05T09:52:48.108Z,13.88
2019-02-05T09:55:15.683Z,12.50
2019-02-05T09:57:43.126Z,15.10
2019-02-05T10:00:14.133Z,13.98
2019-02-05T10:02:41.501Z,13.58
2019-02-05T10:05:10.542Z,14.25
2019-02-05T10:07:37.709Z,13.80
2019-02-05T10:10:07.684Z,13.60
2019-02-05T10:12:34.801Z,14.18
2019-02-05T10:15:02.457Z,13.05
2019-02-05T10:17:29.707Z,12.33
2019-02-05T10:19:57.161Z,14.43
2019-02-05T10:22:24.444Z,13.18
2019-02-05T10:24:52.122Z,13.58
2019-02-05T10:27:19.450Z,14.13
2019-02-05T10:29:56.782Z,11.20
2019-02-05T10:32:15.566Z,11.65
2019-02-05T10:34:43.694Z,11.95
2019-02-05T10:37:11.346Z,11.78
2019-02-05T10:39:38.510Z,11.80
2019-02-05T10:42:05.595Z,12.25
2019-02-05T10:44:33.047Z,11.28
2019-02-05T10:47:00.325Z,12.18
2019-02-05T10:49:27.771Z,10.53
2019-02-05T10:51:54.925Z,11.10
2019-02-05T10:54:22.072Z,12.55
2019-02-05T10:56:49.663Z,11.80
2019-02-05T10:59:16.764Z,12.18
2019-02-05T11:01:44.267Z,11.55
2019-02-05T11:04:11.812Z,12.58
2019-02-05T11:06:39.111Z,12.03
2019-02-05T11:09:08.764Z,11.40
2019-02-05T11:11:35.872Z,12.73
2019-02-05T11:14:03.837Z,12.35
2019-02-05T11:16:31.624Z,9.13
2019-02-05T11:18:59.054Z,12.45
2019-02-05T11:21:26.470Z,13.43
2019-02-05T11:23:53.937Z,13.18
2019-02-05T11:26:21.277Z,11.65
2019-02-05T11:28:48.560Z,12.18
2019-02-05T11:31:15.693Z,13.35
2019-02-05T11:33:42.943Z,12.95
2019-02-05T11:36:10.353Z,13.30
2019-02-05T11:38:37.597Z,12.00
2019-02-05T11:41:04.738Z,13.22
2019-02-05T11:43:32.162Z,14.87
2019-02-05T11:45:59.587Z,12.15
2019-02-05T11:48:26.944Z,11.10
2019-02-05T11:50:54.096Z,12.75
2019-02-05T11:53:21.329Z,11.70
2019-02-05T11:55:48.620Z,12.58
2019-02-05T11:58:15.923Z,13.22
2019-02-05T12:00:53.539Z,12.25
2019-02-05T12:03:20.880Z,12.15
2019-02-05T12:05:48.303Z,11.18
2019-02-05T12:08:18.473Z,10.95
2019-02-05T12:10:44.765Z,12.07
2019-02-05T12:13:12.286Z,12.28
2019-02-05T12:15:39.828Z,12.18
2019-02-05T12:18:07.291Z,11.73
2019-02-05T12:20:34.655Z,12.75
2019-02-05T12:23:02.611Z,13.50
2019-02-05T12:25:30.221Z,14.00
2019-02-05T12:27:57.497Z,13.05
2019-02-05T12:30:27.342Z,13.28
2019-02-05T12:32:54.832Z,11.55
2019-02-05T12:35:22.507Z,14.15
2019-02-05T12:37:49.748Z,13.50
2019-02-05T12:40:17.183Z,13.48
2019-02-05T12:42:45.750Z,11.83
2019-02-05T12:45:15.806Z,12.45
2019-02-05T12:47:43.384Z,12.73
2019-02-05T12:50:16.718Z,13.88
2019-02-05T12:52:44.034Z,13.50
2019-02-05T12:55:14.627Z,12.00
2019-02-05T12:57:40.614Z,11.73
2019-02-05T13:00:31.182Z,11.80
2019-02-05T13:02:58.626Z,13.78
2019-02-05T13:05:26.191Z,12.10
2019-02-05T13:07:53.765Z,13.48
2019-02-05T13:10:23.818Z,12.05
2019-02-05T13:12:51.073Z,11.37
2019-02-05T13:15:18.715Z,12.50
2019-02-05T13:17:46.042Z,12.23
2019-02-05T13:20:17.114Z,12.07
2019-02-05T13:22:44.474Z,12.18
2019-02-05T13:25:17.990Z,12.73
2019-02-05T13:27:45.364Z,12.40
2019-02-05T13:30:14.999Z,12.78
2019-02-05T13:32:42.567Z,13.10
2019-02-05T13:35:10.310Z,11.93
2019-02-05T13:37:37.435Z,11.70
2019-02-05T13:40:07.023Z,13.32
2019-02-05T13:42:34.470Z,11.70
2019-02-05T13:45:01.715Z,10.80
2019-02-05T13:47:29.322Z,12.05
2019-02-05T13:49:56.531Z,11.33
2019-02-05T13:52:24.138Z,12.63
2019-02-05T13:54:51.220Z,12.37
2019-02-05T13:57:19.024Z,13.30
2019-02-05T13:59:46.200Z,12.65
2019-02-05T14:02:13.573Z,12.63
2019-02-05T14:04:40.701Z,11.35
2019-02-05T14:07:08.241Z,11.38
2019-02-05T14:09:35.944Z,11.40
2019-02-05T14:12:03.254Z,12.10
2019-02-05T14:14:30.479Z,12.23
2019-02-05T14:16:57.934Z,12.50
2019-02-05T14:19:25.204Z,11.48
2019-02-05T14:21:52.567Z,10.72
2019-02-05T14:24:20.194Z,10.28
2019-02-05T14:26:47.515Z,11.80
2019-02-05T14:29:14.979Z,12.03
2019-02-05T14:31:42.327Z,11.75
2019-02-05T14:34:09.798Z,11.40
2019-02-05T14:36:36.917Z,11.15
2019-02-05T14:39:07.971Z,11.45
2019-02-05T14:41:35.094Z,12.03
2019-02-05T14:44:03.496Z,11.50
2019-02-05T14:46:30.871Z,11.28
2019-02-05T14:48:57.981Z,11.18
2019-02-05T14:51:25.535Z,12.13
2019-02-05T14:53:53.123Z,11.18
2019-02-05T14:56:20.720Z,11.48
2019-02-05T14:58:47.949Z,11.60
2019-02-05T15:01:15.223Z,12.90
2019-02-05T15:03:42.652Z,12.03
2019-02-05T15:06:10.051Z,12.20
2019-02-05T15:08:38.026Z,11.40
2019-02-05T15:11:05.215Z,12.50
2019-02-05T15:13:32.557Z,11.03
2019-02-05T15:15:59.823Z,11.65
2019-02-05T15:18:27.107Z,11.68
2019-02-05T15:20:54.634Z,12.25
2019-02-05T15:23:21.869Z,11.85
2019-02-05T15:25:49.648Z,12.18
2019-02-05T15:28:16.993Z,11.68
2019-02-05T15:30:44.659Z,11.75
2019-02-05T15:33:21.312Z,11.68
2019-02-05T15:35:52.723Z,11.55
2019-02-05T15:38:20.060Z,12.33
2019-02-05T15:40:47.840Z,11.43
2019-02-05T15:43:15.380Z,12.25
2019-02-05T15:45:42.805Z,11.50
2019-02-05T15:48:10.273Z,11.15
2019-02-05T15:50:37.669Z,11.63
2019-02-05T15:53:04.970Z,12.73
2019-02-05T15:55:32.252Z,11.88
2019-02-05T15:57:59.950Z,11.40
2019-02-05T16:00:27.702Z,12.25
2019-02-05T16:02:55.029Z,13.10
2019-02-05T16:05:22.696Z,14.90
2019-02-05T16:07:50.319Z,13.50
2019-02-05T16:10:17.638Z,13.30
2019-02-05T16:12:45.291Z,12.20
2019-02-05T16:15:13.155Z,14.38
2019-02-05T16:17:40.482Z,14.25
2019-02-05T16:20:10.365Z,14.38
2019-02-05T16:22:38.158Z,13.68
2019-02-05T16:25:08.234Z,12.50
2019-02-05T16:27:36.035Z,13.85
2019-02-05T16:30:06.871Z,14.10
2019-02-05T16:32:34.111Z,13.60
2019-02-05T16:35:01.457Z,14.10
2019-02-05T16:37:28.611Z,13.18
2019-02-05T16:39:56.223Z,14.03
2019-02-05T16:42:23.756Z,13.95
2019-02-05T16:44:51.133Z,13.68
2019-02-05T16:47:18.481Z,14.35
2019-02-05T16:49:46.328Z,14.60
2019-02-05T16:52:13.666Z,15.35
2019-02-05T16:54:40.971Z,16.15
2019-02-05T16:57:08.140Z,15.18
2019-02-05T16:59:35.518Z,13.75
2019-02-05T17:02:02.821Z,16.32
2019-02-05T17:04:30.253Z,15.40
2019-02-05T17:06:57.928Z,15.72
2019-02-05T17:09:25.137Z,16.82
2019-02-05T17:11:52.576Z,17.23
2019-02-05T17:14:19.843Z,18.25
2019-02-05T17:16:47.005Z,16.65
2019-02-05T17:19:14.666Z,16.77
2019-02-05T17:21:42.096Z,15.15
2019-02-05T17:24:09.351Z,15.55
2019-02-05T17:26:37.082Z,15.23
2019-02-05T17:29:04.482Z,15.05
2019-02-05T17:31:31.895Z,14.70
2019-02-05T17:33:59.043Z,15.55
2019-02-05T17:36:26.964Z,16.82
2019-02-05T17:38:54.089Z,16.90
2019-02-05T17:41:21.420Z,14.90
2019-02-05T17:43:50.426Z,15.78
2019-02-05T17:46:18.022Z,15.65
2019-02-05T17:48:45.177Z,16.42
2019-02-05T17:51:12.632Z,15.93
2019-02-05T17:53:40.106Z,16.70
2019-02-05T17:56:07.601Z,16.70
2019-02-05T17:58:34.842Z,16.73
2019-02-05T18:01:09.237Z,15.90
2019-02-05T18:03:37.070Z,18.32
2019-02-05T18:06:05.405Z,17.48
2019-02-05T18:08:33.652Z,18.48
2019-02-05T18:11:01.040Z,18.27
2019-02-05T18:13:29.744Z,17.57
2019-02-05T18:16:00.386Z,17.87
2019-02-05T18:18:27.526Z,20.30
2019-02-05T18:20:55.200Z,18.17
2019-02-05T18:23:22.431Z,17.65
2019-02-05T18:25:49.848Z,18.82
2019-02-05T18:28:18.153Z,18.20
2019-02-05T18:30:45.540Z,18.17
2019-02-05T18:33:13.454Z,19.45
2019-02-05T18:35:41.107Z,20.08
2019-02-05T18:38:11.036Z,19.52
2019-02-05T18:40:38.614Z,20.05
2019-02-05T18:43:11.853Z,18.80
2019-02-05T18:45:39.161Z,20.80
2019-02-05T18:48:06.893Z,18.77
2019-02-05T18:50:34.440Z,20.62
2019-02-05T18:53:01.608Z,20.35
2019-02-05T18:55:29.506Z,19.80
2019-02-05T18:58:08.487Z,19.52
2019-02-05T19:00:28.283Z,21.07
2019-02-05T19:02:55.900Z,20.27
2019-02-05T19:05:24.280Z,20.48
2019-02-05T19:07:53.587Z,19.55
2019-02-05T19:10:24.231Z,20.62
2019-02-05T19:12:51.776Z,21.05
2019-02-05T19:15:21.984Z,20.90
2019-02-05T19:17:49.542Z,22.05
2019-02-05T19:20:19.973Z,23.77
2019-02-05T19:22:47.795Z,23.35
2019-02-05T19:25:34.108Z,21.55
2019-02-05T19:28:01.515Z,21.15
2019-02-05T19:30:30.038Z,20.32
2019-02-05T19:32:59.039Z,22.80
2019-02-05T19:35:26.318Z,21.95
2019-02-05T19:37:56.750Z,21.93
2019-02-05T19:40:24.076Z,19.73
2019-02-05T19:42:51.634Z,21.60
2019-02-05T19:45:28.370Z,20.45
2019-02-05T19:47:56.874Z,19.45
2019-02-05T19:50:24.056Z,20.02
2019-02-05T19:52:51.215Z,20.12
2019-02-05T19:55:18.342Z,21.33
2019-02-05T19:57:45.818Z,18.73
2019-02-05T20:00:13.617Z,20.75
2019-02-05T20:02:40.932Z,21.27
2019-02-05T20:05:08.897Z,22.42
2019-02-05T20:07:37.246Z,20.80
2019-02-05T20:10:05.734Z,21.45
2019-02-05T20:12:33.536Z,20.68
2019-02-05T20:15:00.692Z,19.42
2019-02-05T20:17:28.173Z,20.60
2019-02-05T20:19:55.395Z,20.92
2019-02-05T20:22:23.096Z,22.30
2019-02-05T20:24:50.472Z,22.90
2019-02-05T20:27:17.846Z,21.85
2019-02-05T20:29:45.488Z,22.58
2019-02-05T20:32:12.757Z,22.70
2019-02-05T20:34:39.898Z,21.68
2019-02-05T20:37:07.510Z,23.35
2019-02-05T20:39:35.142Z,21.95
2019-02-05T20:42:04.163Z,21.37
2019-02-05T20:44:31.763Z,22.42
2019-02-05T20:46:59.355Z,21.37
2019-02-05T20:49:28.171Z,20.32
2019-02-05T20:51:56.246Z,19.45
2019-02-05T20:54:23.597Z,23.12
2019-02-05T20:56:51.383Z,20.60
2019-02-05T20:59:20.625Z,21.90
2019-02-05T21:01:49.335Z,23.30
2019-02-05T21:04:16.563Z,22.20
2019-02-05T21:06:44.274Z,20.43
2019-02-05T21:09:19.710Z,21.25
2019-02-05T21:11:47.801Z,17.57
2019-02-05T21:14:16.202Z,20.00
2019-02-05T21:16:44.228Z,20.55
2019-02-05T21:19:13.913Z,21.93
2019-02-05T21:21:41.778Z,20.23
2019-02-05T21:24:15.153Z,19.40
2019-02-05T21:26:44.751Z,19.77
2019-02-05T21:29:13.333Z,20.85
2019-02-05T21:31:41.198Z,20.72
2019-02-05T21:34:15.415Z,22.02
2019-02-05T21:36:47.073Z,21.73
2019-02-05T21:39:14.856Z,20.37
2019-02-05T21:41:41.933Z,17.35
2019-02-05T21:44:09.396Z,21.67
2019-02-05T21:46:36.726Z,20.40
2019-02-05T21:49:04.443Z,20.52
2019-02-05T21:51:40.337Z,20.92
2019-02-05T21:54:00.878Z,20.67
2019-02-05T21:56:28.421Z,20.10
2019-02-05T21:58:55.889Z,19.90
2019-02-05T22:01:23.025Z,20.37
2019-02-05T22:03:53.025Z,20.80
2019-02-05T22:06:20.381Z,19.87
2019-02-05T22:08:48.655Z,20.12
2019-02-05T22:11:15.798Z,22.55
2019-02-05T22:13:42.859Z,21.00
2019-02-05T22:16:10.039Z,22.50
2019-02-05T22:18:37.403Z,19.82
2019-02-05T22:21:04.920Z,20.55
2019-02-05T22:23:32.128Z,20.95
2019-02-05T22:25:59.389Z,20.80
2019-02-05T22:28:26.943Z,20.65
2019-02-05T22:30:54.491Z,21.65
2019-02-05T22:33:21.929Z,23.05
2019-02-05T22:35:49.369Z,23.60
2019-02-05T22:38:16.901Z,21.97
2019-02-05T22:40:44.515Z,23.25
2019-02-05T22:43:12.158Z,22.60
2019-02-05T22:45:41.107Z,21.45
2019-02-05T22:48:08.793Z,23.27
2019-02-05T22:50:36.294Z,22.13
2019-02-05T22:53:04.150Z,22.37
2019-02-05T22:55:34.926Z,21.95
2019-02-05T22:58:02.995Z,23.40
2019-02-05T23:00:50.467Z,22.20
2019-02-05T23:03:39.157Z,22.50
2019-02-05T23:06:34.147Z,21.27
2019-02-05T23:09:31.148Z,22.15
2019-02-05T23:12:21.251Z,20.27
2019-02-05T23:14:55.279Z,21.70
2019-02-05T23:17:22.700Z,20.65
2019-02-05T23:19:52.763Z,21.13
2019-02-05T23:22:20.262Z,21.10
2019-02-05T23:24:47.507Z,21.62
2019-02-05T23:27:14.624Z,20.48
2019-02-05T23:29:42.562Z,20.30
2019-02-05T23:32:10.223Z,21.40
2019-02-05T23:34:37.506Z,21.57
2019-02-05T23:37:04.799Z,21.80
2019-02-05T23:39:32.175Z,21.48
2019-02-05T23:41:59.614Z,20.72
2019-02-05T23:44:26.963Z,21.00
2019-02-05T23:46:54.751Z,21.35
2019-02-05T23:49:22.118Z,22.50
2019-02-05T23:51:49.253Z,21.93
2019-02-05T23:54:16.586Z,20.23
2019-02-05T23:56:43.720Z,20.90
2019-02-05T23:59:11.115Z,21.73
